createdAt,value
2023-03-08T00:01:44.828Z,96718.59
2023-03-08T00:03:49.665Z,96714.50
2023-03-08T00:05:57.084Z,96719.31
2023-03-08T00:08:01.952Z,96715.69
2023-03-08T00:10:07.233Z,96713.72
2023-03-08T00:12:12.115Z,96719.31
2023-03-08T00:14:17.907Z,96729.81
2023-03-08T00:16:22.743Z,96734.56
2023-03-08T00:18:27.609Z,96726.97
2023-03-08T00:20:32.425Z,96726.97
2023-03-08T00:22:41.452Z,96728.25
2023-03-08T00:24:46.304Z,96735.34
2023-03-08T00:26:51.124Z,96731.97
2023-03-08T00:28:56.009Z,96733.41
2023-03-08T00:31:02.125Z,96724.69
2023-03-08T00:33:07.241Z,96741.81
2023-03-08T00:35:12.835Z,96739.03
2023-03-08T00:37:18.300Z,96739.81
2023-03-08T00:39:27.293Z,96739.03
2023-03-08T00:41:32.116Z,96735.69
2023-03-08T00:43:37.201Z,96730.03
2023-03-08T00:45:42.058Z,96737.66
2023-03-08T00:47:46.845Z,96729.13
2023-03-08T00:49:51.610Z,96735.69
2023-03-08T00:51:56.393Z,96738.19
2023-03-08T00:54:01.206Z,96733.81
2023-03-08T00:56:08.893Z,96736.78
2023-03-08T00:58:14.386Z,96737.03
2023-03-08T01:00:20.446Z,96731.91
2023-03-08T01:02:25.315Z,96732.06
2023-03-08T01:04:30.250Z,96722.72
2023-03-08T01:06:35.532Z,96721.59
2023-03-08T01:08:42.210Z,96720.56
2023-03-08T01:10:50.456Z,96723.75
2023-03-08T01:12:57.834Z,96719.44
2023-03-08T01:15:02.711Z,96730.16
2023-03-08T01:17:07.599Z,96725.78
2023-03-08T01:19:12.748Z,96723.69
2023-03-08T01:21:20.459Z,96732.84
2023-03-08T01:23:25.487Z,96737.56
2023-03-08T01:25:31.058Z,96725.63
2023-03-08T01:27:36.227Z,96725.00
2023-03-08T01:29:43.569Z,96728.22
2023-03-08T01:31:48.396Z,96733.09
2023-03-08T01:33:53.710Z,96743.28
2023-03-08T01:35:58.608Z,96741.91
2023-03-08T01:38:03.415Z,96730.41
2023-03-08T01:40:10.122Z,96736.88
2023-03-08T01:42:15.012Z,96726.19
2023-03-08T01:44:22.727Z,96731.53
2023-03-08T01:46:33.671Z,96732.16
2023-03-08T01:48:51.744Z,96723.88
2023-03-08T01:50:57.627Z,96718.56
2023-03-08T01:53:02.535Z,96720.88
2023-03-08T01:55:12.470Z,96718.78
2023-03-08T01:57:21.215Z,96718.13
2023-03-08T01:59:27.177Z,96706.16
2023-03-08T02:01:36.309Z,96721.50
2023-03-08T02:03:41.126Z,96714.63
2023-03-08T02:05:47.340Z,96714.63
2023-03-08T02:07:56.020Z,96724.56
2023-03-08T02:10:05.446Z,96723.00
2023-03-08T02:12:12.112Z,96721.88
2023-03-08T02:14:17.295Z,96711.22
2023-03-08T02:16:26.064Z,96711.56
2023-03-08T02:18:34.293Z,96713.09
2023-03-08T02:20:41.851Z,96713.94
2023-03-08T02:22:52.218Z,96708.56
2023-03-08T02:24:57.020Z,96710.16
2023-03-08T02:27:07.844Z,96705.75
2023-03-08T02:29:12.654Z,96708.81
2023-03-08T02:31:18.662Z,96711.22
2023-03-08T02:33:23.461Z,96710.00
2023-03-08T02:35:28.316Z,96706.97
2023-03-08T02:37:34.137Z,96711.00
2023-03-08T02:39:43.634Z,96701.38
2023-03-08T02:41:51.267Z,96693.75
2023-03-08T02:43:56.094Z,96700.91
2023-03-08T02:46:00.887Z,96702.81
2023-03-08T02:48:06.216Z,96699.00
2023-03-08T02:50:12.751Z,96701.22
2023-03-08T02:52:17.654Z,96700.06
2023-03-08T02:54:22.431Z,96703.56
2023-03-08T02:56:34.008Z,96708.81
2023-03-08T02:58:39.048Z,96708.03
2023-03-08T03:00:44.337Z,96707.97
2023-03-08T03:02:49.254Z,96711.25
2023-03-08T03:04:54.224Z,96708.81
2023-03-08T03:06:59.075Z,96705.50
2023-03-08T03:09:04.425Z,96704.09
2023-03-08T03:11:14.539Z,96703.31
2023-03-08T03:13:22.004Z,96697.25
2023-03-08T03:15:27.394Z,96699.19
2023-03-08T03:17:36.870Z,96693.06
2023-03-08T03:19:41.707Z,96694.75
2023-03-08T03:21:46.508Z,96694.03
2023-03-08T03:23:51.362Z,96693.06
2023-03-08T03:26:00.286Z,96689.72
2023-03-08T03:28:05.195Z,96689.97
2023-03-08T03:30:15.595Z,96686.56
2023-03-08T03:32:21.716Z,96683.28
2023-03-08T03:34:26.637Z,96676.91
2023-03-08T03:36:31.840Z,96674.34
2023-03-08T03:38:37.255Z,96678.25
2023-03-08T03:40:42.793Z,96679.16
2023-03-08T03:42:48.192Z,96685.22
2023-03-08T03:44:53.090Z,96675.13
2023-03-08T03:47:02.296Z,96681.13
2023-03-08T03:49:07.960Z,96680.44
2023-03-08T03:51:19.542Z,96677.25
2023-03-08T03:53:30.879Z,96686.25
2023-03-08T03:55:35.770Z,96683.97
2023-03-08T03:57:42.526Z,96679.81
2023-03-08T03:59:50.779Z,96682.84
2023-03-08T04:01:56.995Z,96686.38
2023-03-08T04:04:15.085Z,96683.13
2023-03-08T04:06:23.859Z,96674.59
2023-03-08T04:08:29.292Z,96678.19
2023-03-08T04:10:35.518Z,96673.84
2023-03-08T04:12:40.858Z,96665.16
2023-03-08T04:14:45.883Z,96668.56
2023-03-08T04:16:52.309Z,96679.66
2023-03-08T04:19:06.849Z,96679.72
2023-03-08T04:21:15.352Z,96673.44
2023-03-08T04:23:20.518Z,96668.47
2023-03-08T04:25:26.455Z,96671.06
2023-03-08T04:27:36.407Z,96667.72
2023-03-08T04:29:41.176Z,96657.47
2023-03-08T04:31:46.260Z,96662.72
2023-03-08T04:33:55.846Z,96657.06
2023-03-08T04:36:00.965Z,96656.38
2023-03-08T04:38:08.415Z,96652.19
2023-03-08T04:40:15.938Z,96640.13
2023-03-08T04:42:28.347Z,96641.00
2023-03-08T04:44:33.508Z,96633.28
2023-03-08T04:46:38.610Z,96631.84
2023-03-08T04:48:43.343Z,96630.09
2023-03-08T04:50:56.109Z,96628.63
2023-03-08T04:53:02.342Z,96622.84
2023-03-08T04:55:10.646Z,96623.63
2023-03-08T04:57:16.169Z,96627.72
2023-03-08T04:59:21.230Z,96626.88
2023-03-08T05:01:26.274Z,96620.06
2023-03-08T05:03:32.083Z,96617.53
2023-03-08T05:05:37.136Z,96613.22
2023-03-08T05:07:42.071Z,96616.56
2023-03-08T05:09:47.031Z,96613.06
2023-03-08T05:11:54.538Z,96614.75
2023-03-08T05:14:01.780Z,96615.66
2023-03-08T05:16:09.789Z,96606.88
2023-03-08T05:18:15.123Z,96604.16
2023-03-08T05:20:20.708Z,96599.16
2023-03-08T05:22:25.791Z,96604.16
2023-03-08T05:24:34.190Z,96592.00
2023-03-08T05:26:44.325Z,96590.31
2023-03-08T05:28:55.911Z,96591.03
2023-03-08T05:31:06.989Z,96596.34
2023-03-08T05:33:14.662Z,96596.28
2023-03-08T05:35:19.805Z,96586.84
2023-03-08T05:37:29.031Z,96590.16
2023-03-08T05:39:38.587Z,96588.69
2023-03-08T05:41:56.318Z,96588.84
2023-03-08T05:44:09.922Z,96585.28
2023-03-08T05:46:18.323Z,96594.69
2023-03-08T05:48:23.524Z,96598.03
2023-03-08T05:50:28.398Z,96598.19
2023-03-08T05:52:34.758Z,96592.16
2023-03-08T05:54:40.383Z,96591.47
2023-03-08T05:56:50.597Z,96587.16
2023-03-08T05:59:03.167Z,96591.63
2023-03-08T06:01:19.228Z,96606.16
2023-03-08T06:03:24.349Z,96601.72
2023-03-08T06:05:29.480Z,96606.94
2023-03-08T06:07:35.640Z,96608.63
2023-03-08T06:09:46.134Z,96609.47
2023-03-08T06:11:53.603Z,96602.34
2023-03-08T06:13:58.476Z,96612.59
2023-03-08T06:16:09.177Z,96621.84
2023-03-08T06:18:16.673Z,96620.03
2023-03-08T06:20:23.581Z,96616.50
2023-03-08T06:22:29.765Z,96618.00
2023-03-08T06:24:35.325Z,96607.34
2023-03-08T06:26:43.701Z,96605.53
2023-03-08T06:28:49.152Z,96611.31
2023-03-08T06:30:54.296Z,96597.56
2023-03-08T06:32:59.412Z,96593.38
2023-03-08T06:35:08.228Z,96591.56
2023-03-08T06:37:17.875Z,96597.41
2023-03-08T06:39:22.745Z,96595.84
2023-03-08T06:41:29.658Z,96605.94
2023-03-08T06:43:38.488Z,96596.28
2023-03-08T06:45:43.681Z,96603.81
2023-03-08T06:47:48.959Z,96597.44
2023-03-08T06:49:53.783Z,96593.19
2023-03-08T06:52:01.302Z,96594.88
2023-03-08T06:54:07.350Z,96590.56
2023-03-08T06:56:15.040Z,96595.72
2023-03-08T06:58:19.789Z,96597.38
2023-03-08T07:00:25.601Z,96596.25
2023-03-08T07:02:30.442Z,96597.03
2023-03-08T07:04:35.369Z,96597.09
2023-03-08T07:06:40.274Z,96600.19
2023-03-08T07:08:47.788Z,96601.63
2023-03-08T07:10:52.577Z,96588.00
2023-03-08T07:12:57.408Z,96588.72
2023-03-08T07:15:02.195Z,96587.75
2023-03-08T07:17:07.111Z,96587.84
2023-03-08T07:19:11.866Z,96589.50
2023-03-08T07:21:16.696Z,96590.19
2023-03-08T07:23:21.465Z,96581.59
2023-03-08T07:25:30.039Z,96578.03
2023-03-08T07:27:36.150Z,96580.31
2023-03-08T07:29:41.294Z,96585.25
2023-03-08T07:31:46.098Z,96582.69
2023-03-08T07:33:50.985Z,96583.41
2023-03-08T07:35:55.912Z,96592.84
2023-03-08T07:38:00.927Z,96600.59
2023-03-08T07:40:07.288Z,96584.03
2023-03-08T07:42:16.179Z,96581.09
2023-03-08T07:44:24.314Z,96574.78
2023-03-08T07:46:29.299Z,96577.44
2023-03-08T07:48:35.238Z,96576.66
2023-03-08T07:50:40.090Z,96589.41
2023-03-08T07:52:44.955Z,96583.34
2023-03-08T07:54:49.777Z,96583.97
2023-03-08T07:56:55.154Z,96586.69
2023-03-08T07:59:02.547Z,96589.88
2023-03-08T08:01:11.827Z,96593.44
2023-03-08T08:03:16.746Z,96590.19
2023-03-08T08:05:21.961Z,96583.50
2023-03-08T08:07:26.916Z,96582.81
2023-03-08T08:09:31.693Z,96589.66
2023-03-08T08:11:37.563Z,96579.84
2023-03-08T08:13:42.554Z,96583.75
2023-03-08T08:15:50.071Z,96579.25
2023-03-08T08:17:56.074Z,96583.75
2023-03-08T08:20:01.490Z,96581.28
2023-03-08T08:22:07.396Z,96578.88
2023-03-08T08:24:12.814Z,96577.75
2023-03-08T08:26:18.412Z,96565.69
2023-03-08T08:28:23.215Z,96549.25
2023-03-08T08:30:27.965Z,96545.13
2023-03-08T08:32:36.027Z,96547.03
2023-03-08T08:34:40.852Z,96538.78
2023-03-08T08:36:45.679Z,96535.81
2023-03-08T08:38:50.689Z,96528.47
2023-03-08T08:40:55.876Z,96520.88
2023-03-08T08:43:00.415Z,96521.31
2023-03-08T08:45:05.274Z,96517.09
2023-03-08T08:47:13.074Z,96514.81
2023-03-08T08:49:20.502Z,96517.38
2023-03-08T08:51:25.515Z,96517.03
2023-03-08T08:53:30.805Z,96505.25
2023-03-08T08:55:35.342Z,96494.84
2023-03-08T08:57:40.184Z,96482.19
2023-03-08T08:59:45.145Z,96482.91
2023-03-08T09:01:49.958Z,96481.31
2023-03-08T09:03:55.445Z,96479.72
2023-03-08T09:06:03.310Z,96481.63
2023-03-08T09:08:08.644Z,96473.69
2023-03-08T09:10:14.680Z,96462.22
2023-03-08T09:12:21.168Z,96455.81
2023-03-08T09:14:26.518Z,96453.91
2023-03-08T09:16:32.149Z,96445.31
2023-03-08T09:18:37.011Z,96432.25
2023-03-08T09:20:41.840Z,96427.97
2023-03-08T09:22:49.500Z,96421.22
2023-03-08T09:24:54.327Z,96422.50
2023-03-08T09:26:59.365Z,96416.38
2023-03-08T09:29:05.735Z,96416.06
2023-03-08T09:31:15.042Z,96415.16
2023-03-08T09:33:20.389Z,96409.22
2023-03-08T09:35:25.030Z,96405.97
2023-03-08T09:37:30.102Z,96397.16
2023-03-08T09:39:38.641Z,96383.25
2023-03-08T09:41:55.842Z,96388.69
2023-03-08T09:44:14.824Z,96382.72
2023-03-08T09:46:26.629Z,96382.50
2023-03-08T09:48:33.842Z,96368.31
2023-03-08T09:50:47.949Z,96371.88
2023-03-08T09:52:57.327Z,96365.97
2023-03-08T09:55:06.898Z,96354.28
2023-03-08T09:57:19.351Z,96358.91
2023-03-08T09:59:28.636Z,96347.69
2023-03-08T10:01:40.896Z,96349.44
2023-03-08T10:04:15.536Z,96346.97
2023-03-08T10:06:25.874Z,96340.94
2023-03-08T10:08:38.196Z,96329.75
2023-03-08T10:10:56.013Z,96330.63
2023-03-08T10:13:20.050Z,96329.66
2023-03-08T10:15:27.748Z,96328.97
2023-03-08T10:17:43.467Z,96326.41
2023-03-08T10:19:51.354Z,96331.03
2023-03-08T10:21:57.977Z,96328.66
2023-03-08T10:24:07.716Z,96329.59
2023-03-08T10:26:18.913Z,96322.63
2023-03-08T10:28:26.476Z,96314.81
2023-03-08T10:30:37.246Z,96312.53
2023-03-08T10:32:46.107Z,96306.91
2023-03-08T10:34:51.580Z,96308.44
2023-03-08T10:37:01.111Z,96304.53
2023-03-08T10:39:11.384Z,96308.88
2023-03-08T10:41:20.148Z,96308.97
2023-03-08T10:43:30.607Z,96314.78
2023-03-08T10:45:35.874Z,96305.47
2023-03-08T10:47:41.047Z,96304.47
2023-03-08T10:49:47.557Z,96303.81
2023-03-08T10:51:58.284Z,96311.22
2023-03-08T10:54:05.001Z,96300.78
2023-03-08T10:56:27.379Z,96284.69
2023-03-08T10:58:37.900Z,96282.28
2023-03-08T11:00:45.784Z,96298.88
2023-03-08T11:02:51.251Z,96294.13
2023-03-08T11:04:59.122Z,96293.03
2023-03-08T11:07:14.354Z,96299.28
2023-03-08T11:09:25.899Z,96294.34
2023-03-08T11:11:44.317Z,96292.84
2023-03-08T11:13:52.156Z,96285.63
2023-03-08T11:16:05.843Z,96286.13
2023-03-08T11:18:28.409Z,96278.34
2023-03-08T11:20:39.225Z,96280.50
2023-03-08T11:22:58.870Z,96274.31
2023-03-08T11:25:17.258Z,96268.22
2023-03-08T11:27:40.440Z,96273.16
2023-03-08T11:29:56.620Z,96275.47
2023-03-08T11:32:10.239Z,96267.59
2023-03-08T11:34:41.855Z,96265.59
2023-03-08T11:36:52.061Z,96264.69
2023-03-08T11:39:02.374Z,96263.84
2023-03-08T11:41:22.438Z,96256.66
2023-03-08T11:43:44.791Z,96255.13
2023-03-08T11:45:55.736Z,96248.22
2023-03-08T11:48:27.542Z,96238.34
2023-03-08T11:50:36.554Z,96241.09
2023-03-08T11:52:52.614Z,96240.69
2023-03-08T11:55:10.698Z,96236.63
2023-03-08T11:57:18.680Z,96234.59
2023-03-08T11:59:34.530Z,96236.19
2023-03-08T12:01:41.480Z,96222.38
2023-03-08T12:03:50.151Z,96214.81
2023-03-08T12:05:57.728Z,96213.97
2023-03-08T12:08:08.246Z,96203.81
2023-03-08T12:10:21.556Z,96198.06
2023-03-08T12:12:32.968Z,96184.84
2023-03-08T12:14:55.363Z,96193.75
2023-03-08T12:17:07.250Z,96203.50
2023-03-08T12:19:20.440Z,96198.81
2023-03-08T12:21:40.370Z,96184.81
2023-03-08T12:23:53.458Z,96177.91
2023-03-08T12:26:08.158Z,96187.06
2023-03-08T12:28:20.773Z,96189.22
2023-03-08T12:30:40.585Z,96185.19
2023-03-08T12:32:47.513Z,96175.91
2023-03-08T12:35:04.596Z,96178.13
2023-03-08T12:37:22.783Z,96167.28
2023-03-08T12:39:32.186Z,96167.22
2023-03-08T12:41:37.360Z,96147.44
2023-03-08T12:43:41.959Z,96161.47
2023-03-08T12:45:52.715Z,96169.13
2023-03-08T12:48:01.831Z,96167.03
2023-03-08T12:50:13.585Z,96152.88
2023-03-08T12:52:33.396Z,96134.34
2023-03-08T12:54:38.909Z,96139.41
2023-03-08T12:56:54.357Z,96154.44
2023-03-08T12:59:01.746Z,96161.19
2023-03-08T13:01:11.040Z,96153.91
2023-03-08T13:03:30.657Z,96145.72
2023-03-08T13:05:38.136Z,96114.34
2023-03-08T13:07:55.349Z,96120.25
2023-03-08T13:10:11.534Z,96124.41
2023-03-08T13:12:28.130Z,96139.47
2023-03-08T13:14:42.558Z,96144.78
2023-03-08T13:16:50.125Z,96111.84
2023-03-08T13:19:05.465Z,96126.28
2023-03-08T13:21:29.020Z,96117.47
2023-03-08T13:23:40.021Z,96100.88
2023-03-08T13:25:57.471Z,96104.06
2023-03-08T13:28:08.591Z,96093.31
2023-03-08T13:30:25.334Z,96099.44
2023-03-08T13:32:33.994Z,96107.63
2023-03-08T13:34:38.888Z,96109.47
2023-03-08T13:36:50.844Z,96103.00
2023-03-08T13:39:01.392Z,96100.84
2023-03-08T13:41:06.675Z,96085.22
2023-03-08T13:43:19.919Z,96078.94
2023-03-08T13:45:25.315Z,96081.63
2023-03-08T13:47:36.260Z,96080.38
2023-03-08T13:49:46.333Z,96089.91
2023-03-08T13:51:54.681Z,96089.44
2023-03-08T13:54:00.089Z,96082.94
2023-03-08T13:56:07.184Z,96089.19
2023-03-08T13:58:22.686Z,96092.09
2023-03-08T14:00:31.444Z,96085.06
2023-03-08T14:02:38.921Z,96086.31
2023-03-08T14:04:45.969Z,96081.38
2023-03-08T14:06:55.172Z,96076.50
2023-03-08T14:09:03.477Z,96067.50
2023-03-08T14:11:16.020Z,96071.44
2023-03-08T14:13:23.664Z,96070.50
2023-03-08T14:15:28.533Z,96072.69
2023-03-08T14:17:37.222Z,96068.13
2023-03-08T14:19:45.096Z,96061.69
2023-03-08T14:21:53.234Z,96055.38
2023-03-08T14:24:00.318Z,96050.81
2023-03-08T14:26:05.162Z,96056.53
2023-03-08T14:28:39.023Z,96036.38
2023-03-08T14:30:50.281Z,96040.34
2023-03-08T14:33:06.310Z,96034.63
2023-03-08T14:35:22.818Z,96029.94
2023-03-08T14:37:29.683Z,96027.38
2023-03-08T14:39:36.239Z,96032.25
2023-03-08T14:41:41.113Z,96035.56
2023-03-08T14:43:51.180Z,96036.25
2023-03-08T14:45:58.463Z,96030.78
2023-03-08T14:48:05.187Z,96035.00
2023-03-08T14:50:24.994Z,96037.28
2023-03-08T14:52:31.304Z,96039.66
2023-03-08T14:54:38.632Z,96033.31
2023-03-08T14:56:43.494Z,96038.06
2023-03-08T14:58:50.741Z,96031.75
2023-03-08T15:00:57.540Z,96029.31
2023-03-08T15:03:03.298Z,96032.41
2023-03-08T15:05:10.076Z,96031.03
2023-03-08T15:07:21.876Z,96025.38
2023-03-08T15:09:26.892Z,96027.66
2023-03-08T15:11:32.982Z,96017.06
2023-03-08T15:13:37.773Z,96018.47
2023-03-08T15:15:42.926Z,96015.78
2023-03-08T15:17:47.750Z,96018.16
2023-03-08T15:19:52.543Z,96006.13
2023-03-08T15:21:57.431Z,96013.06
2023-03-08T15:24:04.918Z,96018.06
2023-03-08T15:26:10.014Z,96029.47
2023-03-08T15:28:18.084Z,96039.25
2023-03-08T15:30:24.845Z,96043.97
2023-03-08T15:32:29.816Z,96056.81
2023-03-08T15:34:35.134Z,96073.00
2023-03-08T15:36:39.987Z,96072.16
2023-03-08T15:38:45.314Z,96074.31
2023-03-08T15:40:52.999Z,96078.41
2023-03-08T15:42:58.186Z,96082.91
2023-03-08T15:45:02.999Z,96084.78
2023-03-08T15:47:08.205Z,96083.22
2023-03-08T15:49:12.941Z,96088.75
2023-03-08T15:51:21.370Z,96106.84
2023-03-08T15:53:35.406Z,96114.34
2023-03-08T15:55:43.646Z,96128.09
2023-03-08T15:57:51.270Z,96130.06
2023-03-08T15:59:56.187Z,96120.59
2023-03-08T16:02:01.061Z,96123.59
2023-03-08T16:04:05.970Z,96124.13
2023-03-08T16:06:12.950Z,96127.53
2023-03-08T16:08:17.895Z,96123.56
2023-03-08T16:10:22.831Z,96115.78
2023-03-08T16:12:27.910Z,96127.09
2023-03-08T16:14:35.322Z,96128.53
2023-03-08T16:16:45.532Z,96123.53
2023-03-08T16:18:50.891Z,96119.19
2023-03-08T16:20:55.680Z,96116.19
2023-03-08T16:23:00.464Z,96122.75
2023-03-08T16:25:05.994Z,96119.31
2023-03-08T16:27:10.769Z,96118.81
2023-03-08T16:29:15.527Z,96115.69
2023-03-08T16:31:24.439Z,96118.53
2023-03-08T16:33:29.724Z,96117.41
2023-03-08T16:35:34.379Z,96115.81
2023-03-08T16:37:39.259Z,96106.63
2023-03-08T16:39:44.070Z,96118.53
2023-03-08T16:41:49.478Z,96118.13
2023-03-08T16:43:54.811Z,96124.97
2023-03-08T16:46:00.781Z,96128.69
2023-03-08T16:48:08.491Z,96132.03
2023-03-08T16:50:15.137Z,96132.66
2023-03-08T16:52:20.858Z,96135.56
2023-03-08T16:54:26.482Z,96133.91
2023-03-08T16:56:32.424Z,96132.44
2023-03-08T16:58:37.252Z,96137.53
2023-03-08T17:00:42.103Z,96143.41
2023-03-08T17:02:47.303Z,96144.78
2023-03-08T17:04:54.749Z,96152.47
2023-03-08T17:06:59.686Z,96155.47
2023-03-08T17:09:05.271Z,96149.53
2023-03-08T17:11:17.468Z,96145.47
2023-03-08T17:13:22.296Z,96144.44
2023-03-08T17:15:27.125Z,96143.31
2023-03-08T17:17:31.925Z,96140.38
2023-03-08T17:19:37.185Z,96137.69
2023-03-08T17:21:45.739Z,96140.06
2023-03-08T17:23:51.757Z,96149.41
2023-03-08T17:25:57.090Z,96149.19
2023-03-08T17:28:01.924Z,96155.31
2023-03-08T17:30:07.946Z,96154.47
2023-03-08T17:32:12.814Z,96151.66
2023-03-08T17:34:17.775Z,96155.22
2023-03-08T17:36:23.028Z,96152.53
2023-03-08T17:38:30.743Z,96146.47
2023-03-08T17:40:36.047Z,96148.16
2023-03-08T17:42:40.851Z,96150.03
2023-03-08T17:44:45.661Z,96154.47
2023-03-08T17:46:50.441Z,96158.53
2023-03-08T17:48:55.458Z,96155.72
2023-03-08T17:51:04.470Z,96146.25
2023-03-08T17:53:12.692Z,96159.38
2023-03-08T17:55:20.198Z,96158.19
2023-03-08T17:57:25.510Z,96147.72
2023-03-08T17:59:30.323Z,96149.28
2023-03-08T18:01:35.093Z,96144.78
2023-03-08T18:03:40.409Z,96139.50
2023-03-08T18:05:50.933Z,96140.03
2023-03-08T18:07:55.840Z,96132.09
2023-03-08T18:10:02.029Z,96138.25
2023-03-08T18:12:11.798Z,96140.03
2023-03-08T18:14:18.759Z,96140.44
2023-03-08T18:16:25.568Z,96142.31
2023-03-08T18:18:30.428Z,96142.19
2023-03-08T18:20:37.854Z,96143.88
2023-03-08T18:22:47.171Z,96131.59
2023-03-08T18:24:52.178Z,96131.59
2023-03-08T18:26:58.146Z,96127.94
2023-03-08T18:29:05.541Z,96122.66
2023-03-08T18:31:11.135Z,96119.84
2023-03-08T18:33:15.963Z,96126.38
2023-03-08T18:35:21.241Z,96127.09
2023-03-08T18:37:26.164Z,96130.31
2023-03-08T18:39:31.037Z,96136.41
2023-03-08T18:41:37.136Z,96137.06
2023-03-08T18:43:41.972Z,96139.31
2023-03-08T18:45:55.556Z,96150.19
2023-03-08T18:48:00.440Z,96137.22
2023-03-08T18:50:05.467Z,96140.75
2023-03-08T18:52:10.672Z,96134.41
2023-03-08T18:54:17.409Z,96122.22
2023-03-08T18:56:22.452Z,96131.47
2023-03-08T18:58:27.350Z,96113.91
2023-03-08T19:00:34.935Z,96120.72
2023-03-08T19:02:42.425Z,96135.06
2023-03-08T19:04:47.666Z,96128.91
2023-03-08T19:06:53.402Z,96103.38
2023-03-08T19:08:58.187Z,96077.16
2023-03-08T19:11:12.811Z,96086.38
2023-03-08T19:13:17.618Z,96103.72
2023-03-08T19:15:23.607Z,96109.81
2023-03-08T19:17:28.535Z,96101.75
2023-03-08T19:19:37.523Z,96102.03
2023-03-08T19:21:44.091Z,96086.31
2023-03-08T19:23:49.140Z,96081.72
2023-03-08T19:26:06.224Z,96108.53
2023-03-08T19:28:11.029Z,96110.06
2023-03-08T19:30:16.305Z,96085.94
2023-03-08T19:32:21.477Z,96095.28
2023-03-08T19:34:28.354Z,96065.53
2023-03-08T19:36:38.263Z,96074.28
2023-03-08T19:38:43.075Z,96095.09
2023-03-08T19:40:48.189Z,96093.06
2023-03-08T19:42:54.476Z,96109.56
2023-03-08T19:44:59.353Z,96119.34
2023-03-08T19:47:05.023Z,96132.44
2023-03-08T19:49:11.890Z,96131.59
2023-03-08T19:51:17.696Z,96131.59
2023-03-08T19:53:25.204Z,96112.38
2023-03-08T19:55:29.988Z,96138.03
2023-03-08T19:57:34.831Z,96137.50
2023-03-08T19:59:40.280Z,96154.66
2023-03-08T20:01:46.203Z,96134.00
2023-03-08T20:03:55.055Z,96164.56
2023-03-08T20:06:00.235Z,96155.03
2023-03-08T20:08:04.804Z,96155.25
2023-03-08T20:10:18.231Z,96151.94
2023-03-08T20:12:23.102Z,96162.13
2023-03-08T20:14:29.560Z,96158.59
2023-03-08T20:16:34.587Z,96148.81
2023-03-08T20:18:39.547Z,96148.69
2023-03-08T20:20:45.063Z,96136.84
2023-03-08T20:22:49.867Z,96139.66
2023-03-08T20:24:55.383Z,96148.53
2023-03-08T20:27:04.197Z,96136.44
2023-03-08T20:29:09.092Z,96137.56
2023-03-08T20:31:15.008Z,96139.63
2023-03-08T20:33:20.061Z,96146.47
2023-03-08T20:35:24.978Z,96146.81
2023-03-08T20:37:29.784Z,96158.09
2023-03-08T20:39:34.673Z,96152.69
2023-03-08T20:41:39.598Z,96156.22
2023-03-08T20:43:48.825Z,96159.97
2023-03-08T20:45:53.659Z,96174.06
2023-03-08T20:47:58.721Z,96170.81
2023-03-08T20:50:05.186Z,96167.81
2023-03-08T20:52:10.219Z,96167.41
2023-03-08T20:54:15.154Z,96166.38
2023-03-08T20:56:22.093Z,96164.19
2023-03-08T20:58:27.488Z,96155.19
2023-03-08T21:00:35.334Z,96160.38
2023-03-08T21:02:41.275Z,96158.94
2023-03-08T21:04:46.924Z,96160.59
2023-03-08T21:06:52.141Z,96168.28
2023-03-08T21:08:56.750Z,96167.72
2023-03-08T21:11:01.590Z,96160.69
2023-03-08T21:13:07.563Z,96162.97
2023-03-08T21:15:14.399Z,96172.50
2023-03-08T21:17:26.084Z,96165.34
2023-03-08T21:19:30.987Z,96180.28
2023-03-08T21:21:38.478Z,96186.56
2023-03-08T21:23:43.233Z,96175.28
2023-03-08T21:25:47.991Z,96183.44
2023-03-08T21:27:52.728Z,96186.88
2023-03-08T21:29:57.556Z,96183.63
2023-03-08T21:32:02.378Z,96188.50
2023-03-08T21:34:10.217Z,96200.03
2023-03-08T21:36:15.143Z,96202.00
2023-03-08T21:38:19.991Z,96203.94
2023-03-08T21:40:24.770Z,96203.66
2023-03-08T21:42:29.682Z,96209.16
2023-03-08T21:44:34.499Z,96212.13
2023-03-08T21:46:40.265Z,96203.78
2023-03-08T21:48:45.211Z,96204.41
2023-03-08T21:50:52.689Z,96213.94
2023-03-08T21:52:57.480Z,96204.63
2023-03-08T21:55:02.265Z,96206.75
2023-03-08T21:57:07.106Z,96198.06
2023-03-08T21:59:13.050Z,96201.81
2023-03-08T22:01:22.467Z,96195.09
2023-03-08T22:03:30.769Z,96197.28
2023-03-08T22:05:35.879Z,96189.84
2023-03-08T22:07:44.036Z,96176.22
2023-03-08T22:09:48.893Z,96173.31
2023-03-08T22:11:54.499Z,96157.44
2023-03-08T22:14:01.516Z,96150.78
2023-03-08T22:16:07.105Z,96151.19
2023-03-08T22:18:11.917Z,96157.94
2023-03-08T22:20:16.899Z,96167.28
2023-03-08T22:22:21.814Z,96166.25
2023-03-08T22:24:33.661Z,96166.88
2023-03-08T22:26:38.462Z,96158.16
2023-03-08T22:28:43.301Z,96159.81
2023-03-08T22:30:48.101Z,96150.19
2023-03-08T22:32:53.459Z,96149.31
2023-03-08T22:34:58.292Z,96157.97
2023-03-08T22:37:03.350Z,96149.22
2023-03-08T22:39:08.107Z,96146.63
2023-03-08T22:41:21.207Z,96146.72
2023-03-08T22:43:26.045Z,96142.47
2023-03-08T22:45:30.850Z,96133.16
2023-03-08T22:47:38.389Z,96126.19
2023-03-08T22:49:43.133Z,96128.16
2023-03-08T22:51:48.266Z,96123.09
2023-03-08T22:53:53.522Z,96121.34
2023-03-08T22:55:58.062Z,96125.91
2023-03-08T22:58:05.617Z,96130.38
2023-03-08T23:00:14.515Z,96126.13
2023-03-08T23:02:19.439Z,96124.34
2023-03-08T23:04:24.274Z,96124.22
2023-03-08T23:06:30.823Z,96116.66
2023-03-08T23:08:39.483Z,96115.75
2023-03-08T23:10:45.176Z,96105.38
2023-03-08T23:12:50.171Z,96106.91
2023-03-08T23:14:57.629Z,96100.06
2023-03-08T23:17:02.429Z,96119.78
2023-03-08T23:19:07.355Z,96114.38
2023-03-08T23:21:15.306Z,96102.34
2023-03-08T23:23:20.206Z,96104.63
2023-03-08T23:25:25.008Z,96102.00
2023-03-08T23:27:29.777Z,96090.00
2023-03-08T23:29:34.651Z,96102.00
2023-03-08T23:31:46.176Z,96079.63
2023-03-08T23:33:51.316Z,96074.66
2023-03-08T23:35:56.869Z,96075.47
2023-03-08T23:38:01.804Z,96076.06
2023-03-08T23:40:07.622Z,96079.50
2023-03-08T23:42:12.404Z,96078.56
2023-03-08T23:44:18.344Z,96080.44
2023-03-08T23:46:23.389Z,96078.56
2023-03-08T23:48:30.829Z,96075.16
2023-03-08T23:50:36.099Z,96080.44
2023-03-08T23:52:40.649Z,96083.03
2023-03-08T23:54:45.484Z,96080.22
2023-03-08T23:56:50.431Z,96067.78
2023-03-08T23:58:56.827Z,96060.09
